Time;durP1;ratioP1;P1;durP2;ratioP2;P2;SDS_P1;SDS_P2;PMS_P1;PMS_P2;Temp;Humidity;BMP_temperature;BMP_pressure;BME280_temperature;BME280_humidity;BME280_pressure;Samples;Min_cycle;Max_cycle;Signal;HPM_P1;HPM_P2
2023/11/28 00:00:09;;;;;;;;;;;;;;;-4.55;85.05;99919.71;106488;1260;65342;-81
2023/11/28 00:02:56;;;;;;;;;;;;;;;-4.57;85.12;99918.39;106572;1263;75372;-81
2023/11/28 00:05:22;;;;;;;;;;;;;;;-4.57;85.07;99919.75;106524;1265;124560;-81
2023/11/28 00:07:49;;;;;;;;;;;;;;;-4.58;85.07;99916.57;106491;1260;61187;-81
2023/11/28 00:10:16;;;;;;;;;;;;;;;-4.59;85.07;99918.20;106382;1260;124820;-82
2023/11/28 00:12:42;;;;;;;;;;;;;;;-4.60;84.99;99922.41;106463;1263;66288;-81
2023/11/28 00:15:10;;;;;;;;;;;;;;;-4.61;85.08;99923.85;106565;1261;71498;-81
2023/11/28 00:17:37;;;;;;;;;;;;;;;-4.63;85.14;99921.84;106450;1264;124638;-81
2023/11/28 00:20:03;;;;;;;;;;;;;;;-4.65;84.99;99920.88;106714;1263;61266;-81
2023/11/28 00:22:30;;;;;;;;;;;;;;;-4.66;85.03;99917.88;106549;1261;125468;-81
2023/11/28 00:24:57;;;;;;;;;;;;;;;-4.68;84.92;99918.77;106554;1260;66760;-80
2023/11/28 00:27:23;;;;;;;;;;;;;;;-4.69;85.07;99921.30;106546;1263;71365;-81
2023/11/28 00:29:50;;;;;;;;;;;;;;;-4.71;85.00;99913.26;106525;1260;124530;-81
2023/11/28 00:32:17;;;;;;;;;;;;;;;-4.72;84.99;99914.19;106594;1258;61315;-81
2023/11/28 00:34:44;;;;;;;;;;;;;;;-4.73;85.03;99915.48;106448;1259;125202;-81
2023/11/28 00:37:10;;;;;;;;;;;;;;;-4.74;84.93;99915.78;106513;1267;66318;-81
2023/11/28 00:39:39;;;;;;;;;;;;;;;-4.74;84.99;99914.59;106537;1261;124923;-80
2023/11/28 00:42:05;;;;;;;;;;;;;;;-4.75;85.04;99906.31;106663;1263;61323;-82
2023/11/28 00:44:32;;;;;;;;;;;;;;;-4.74;85.09;99906.16;106599;1263;61349;-81
2023/11/28 00:46:58;;;;;;;;;;;;;;;-4.74;85.06;99903.77;106485;1261;124897;-81
2023/11/28 00:49:25;;;;;;;;;;;;;;;-4.75;85.07;99899.77;106583;1261;66196;-81
2023/11/28 00:51:53;;;;;;;;;;;;;;;-4.76;85.04;99901.27;106299;1260;124368;-81
2023/11/28 00:54:20;;;;;;;;;;;;;;;-4.77;85.00;99904.42;106316;1263;61376;-82
2023/11/28 00:56:47;;;;;;;;;;;;;;;-4.78;85.12;99903.30;106532;1263;61270;-81
2023/11/28 00:59:14;;;;;;;;;;;;;;;-4.79;85.08;99899.98;106523;1261;124239;-80
2023/11/28 01:01:40;;;;;;;;;;;;;;;-4.82;85.04;99895.18;106629;1262;66309;-81
2023/11/28 01:04:07;;;;;;;;;;;;;;;-4.84;85.11;99895.70;106421;1263;125062;-82
2023/11/28 01:06:33;;;;;;;;;;;;;;;-4.85;85.09;99892.73;106503;1261;61367;-81
2023/11/28 01:09:00;;;;;;;;;;;;;;;-4.84;85.32;99890.36;106533;1258;59307;-81
2023/11/28 01:11:27;;;;;;;;;;;;;;;-4.84;85.40;99883.55;106295;1263;123389;-81
2023/11/28 01:13:54;;;;;;;;;;;;;;;-4.85;85.39;99878.71;106448;1260;65126;-82
2023/11/28 01:16:20;;;;;;;;;;;;;;;-4.87;85.21;99874.79;106407;1263;125026;-82
2023/11/28 01:18:47;;;;;;;;;;;;;;;-4.89;85.11;99872.77;106586;1260;61124;-83
2023/11/28 01:21:14;;;;;;;;;;;;;;;-4.92;85.21;99873.63;106492;1261;61240;-81
2023/11/28 01:23:40;;;;;;;;;;;;;;;-4.92;85.16;99879.21;106488;1260;124867;-82
2023/11/28 01:26:07;;;;;;;;;;;;;;;-4.94;85.11;99875.50;106692;1262;65277;-82
2023/11/28 01:28:34;;;;;;;;;;;;;;;-4.96;85.08;99873.66;106548;1259;124444;-82
2023/11/28 01:31:01;;;;;;;;;;;;;;;-4.96;85.14;99872.24;106552;1261;61309;-82
2023/11/28 01:33:27;;;;;;;;;;;;;;;-4.96;85.10;99870.39;106444;1260;60157;-82
2023/11/28 01:35:54;;;;;;;;;;;;;;;-4.96;85.27;99868.19;106444;1263;124639;-82
2023/11/28 01:38:21;;;;;;;;;;;;;;;-4.93;85.26;99868.20;106578;1260;64697;-82
2023/11/28 01:40:50;;;;;;;;;;;;;;;-4.90;85.36;99863.83;106424;1261;125798;-81
2023/11/28 01:43:24;;;;;;;;;;;;;;;-4.88;85.42;99861.90;106685;1259;61358;-81
2023/11/28 01:45:51;;;;;;;;;;;;;;;-4.85;85.48;99862.23;106527;1260;125083;-81
2023/11/28 01:48:18;;;;;;;;;;;;;;;-4.83;85.53;99861.19;106533;1260;74281;-81
2023/11/28 01:50:46;;;;;;;;;;;;;;;-4.81;85.54;99858.24;106428;1261;65069;-81
2023/11/28 01:53:13;;;;;;;;;;;;;;;-4.81;85.52;99855.05;106309;1264;124683;-81
2023/11/28 01:55:40;;;;;;;;;;;;;;;-4.80;85.45;99849.81;106522;1260;61594;-82
2023/11/28 01:58:06;;;;;;;;;;;;;;;-4.79;85.53;99851.06;106398;1264;124851;-81
2023/11/28 02:00:33;;;;;;;;;;;;;;;-4.78;85.60;99848.08;106552;1260;74131;-81
2023/11/28 02:03:00;;;;;;;;;;;;;;;-4.77;85.54;99845.06;106652;1260;65442;-81
2023/11/28 02:05:27;;;;;;;;;;;;;;;-4.77;85.54;99847.13;106484;1260;124479;-81
2023/11/28 02:07:53;;;;;;;;;;;;;;;-4.77;85.42;99842.66;106596;1261;60390;-82
2023/11/28 02:10:20;;;;;;;;;;;;;;;-4.78;85.41;99837.61;106483;1260;125723;-82
2023/11/28 02:12:46;;;;;;;;;;;;;;;-4.77;85.31;99839.89;106678;1262;73388;-82
2023/11/28 02:15:13;;;;;;;;;;;;;;;-4.77;85.40;99837.50;106472;1260;65245;-81
2023/11/28 02:17:40;;;;;;;;;;;;;;;-4.78;85.30;99835.06;106453;1260;123695;-81
2023/11/28 02:20:08;;;;;;;;;;;;;;;-4.78;85.34;99828.34;106453;1261;61259;-82
2023/11/28 02:22:34;;;;;;;;;;;;;;;-4.79;85.33;99823.48;106307;1261;124652;-81
2023/11/28 02:25:01;;;;;;;;;;;;;;;-4.81;85.25;99821.50;106636;1262;74690;-81
2023/11/28 02:27:27;;;;;;;;;;;;;;;-4.84;85.09;99818.52;106525;1261;66293;-82
2023/11/28 02:29:54;;;;;;;;;;;;;;;-4.86;85.13;99816.17;106499;1263;124803;-81
2023/11/28 02:32:20;;;;;;;;;;;;;;;-4.86;85.15;99817.84;106594;1259;61333;-81
2023/11/28 02:34:47;;;;;;;;;;;;;;;-4.89;84.99;99815.28;106403;1261;125076;-81
2023/11/28 02:37:14;;;;;;;;;;;;;;;-4.90;85.11;99813.02;106437;1260;74603;-81
2023/11/28 02:39:41;;;;;;;;;;;;;;;-4.90;85.02;99815.02;106431;1260;124555;-81
2023/11/28 02:42:08;;;;;;;;;;;;;;;-4.92;85.03;99814.07;106581;1263;72409;-81
2023/11/28 02:44:34;;;;;;;;;;;;;;;-4.92;85.12;99810.63;106348;1263;61366;-81
2023/11/28 02:47:01;;;;;;;;;;;;;;;-4.93;85.05;99807.14;106439;1260;124797;-81
2023/11/28 02:49:28;;;;;;;;;;;;;;;-4.94;84.99;99804.83;106400;1260;74559;-82
2023/11/28 02:51:54;;;;;;;;;;;;;;;-4.95;85.00;99804.64;106510;1261;124630;-81
2023/11/28 02:54:21;;;;;;;;;;;;;;;-4.94;84.95;99804.98;106508;1259;71409;-80
2023/11/28 02:56:48;;;;;;;;;;;;;;;-4.94;84.99;99803.93;106420;1260;61444;-81
2023/11/28 02:59:15;;;;;;;;;;;;;;;-4.95;84.92;99798.45;106536;1260;124520;-81
2023/11/28 03:01:41;;;;;;;;;;;;;;;-4.94;85.02;99794.89;106381;1264;75131;-82
2023/11/28 03:04:08;;;;;;;;;;;;;;;-4.94;84.94;99790.81;106544;1261;125492;-83
2023/11/28 03:06:34;;;;;;;;;;;;;;;-4.93;85.03;99786.74;106504;1261;71416;-83
2023/11/28 03:09:01;;;;;;;;;;;;;;;-4.92;84.95;99790.05;106637;1259;62034;-83
2023/11/28 03:11:28;;;;;;;;;;;;;;;-4.91;85.04;99788.10;106466;1260;123811;-82
2023/11/28 03:13:55;;;;;;;;;;;;;;;-4.91;84.96;99780.60;106635;1260;75241;-82
2023/11/28 03:16:21;;;;;;;;;;;;;;;-4.91;85.08;99777.19;106407;1259;124114;-82
2023/11/28 03:18:48;;;;;;;;;;;;;;;-4.90;84.99;99780.14;106355;1260;72758;-82
2023/11/28 03:21:15;;;;;;;;;;;;;;;-4.91;84.94;99776.80;106455;1260;61202;-83
2023/11/28 03:23:41;;;;;;;;;;;;;;;-4.94;84.87;99769.96;106380;1260;123922;-83
2023/11/28 03:26:08;;;;;;;;;;;;;;;-4.94;84.93;99771.09;106540;1261;74436;-82
2023/11/28 03:28:35;;;;;;;;;;;;;;;-4.95;85.00;99766.77;106438;1261;124649;-81
2023/11/28 03:31:01;;;;;;;;;;;;;;;-4.97;84.90;99767.86;106403;1260;71736;-80
2023/11/28 03:33:28;;;;;;;;;;;;;;;-4.97;84.90;99762.33;106393;1261;59700;-82
2023/11/28 03:35:55;;;;;;;;;;;;;;;-4.97;84.87;99759.77;106399;1260;124550;-82
2023/11/28 03:38:21;;;;;;;;;;;;;;;-4.97;85.06;99760.27;106596;1261;74423;-82
2023/11/28 03:40:48;;;;;;;;;;;;;;;-4.96;85.10;99758.68;106434;1264;124509;-83
2023/11/28 03:43:15;;;;;;;;;;;;;;;-4.94;85.15;99758.48;106537;1259;72484;-81
2023/11/28 03:45:42;;;;;;;;;;;;;;;-4.92;85.00;99760.31;106373;1259;125244;-82
2023/11/28 03:48:08;;;;;;;;;;;;;;;-4.90;85.19;99763.24;106485;1260;61276;-82
2023/11/28 03:50:35;;;;;;;;;;;;;;;-4.89;85.10;99760.02;106481;1259;74426;-82
2023/11/28 03:53:03;;;;;;;;;;;;;;;-4.85;85.24;99763.48;106363;1260;124794;-82
2023/11/28 03:55:30;;;;;;;;;;;;;;;-4.81;85.21;99762.95;106470;1259;70893;-81
2023/11/28 03:57:56;;;;;;;;;;;;;;;-4.77;85.23;99762.21;106471;1259;125032;-81
2023/11/28 04:00:23;;;;;;;;;;;;;;;-4.73;85.25;99759.38;106479;1263;61314;-81
2023/11/28 04:02:50;;;;;;;;;;;;;;;-4.68;85.25;99753.20;106435;1260;74722;-79
2023/11/28 04:05:18;;;;;;;;;;;;;;;-4.63;85.22;99750.48;106333;1262;124552;-80
2023/11/28 04:07:44;;;;;;;;;;;;;;;-4.58;85.18;99742.79;106439;1261;71461;-81
2023/11/28 04:10:11;;;;;;;;;;;;;;;-4.56;85.16;99738.85;106314;1259;124829;-81
2023/11/28 04:12:37;;;;;;;;;;;;;;;-4.54;85.08;99738.29;106470;1259;59892;-81
2023/11/28 04:15:04;;;;;;;;;;;;;;;-4.50;85.12;99737.38;106586;1259;74694;-82
2023/11/28 04:17:31;;;;;;;;;;;;;;;-4.41;85.32;99734.49;106448;1260;124552;-81
2023/11/28 04:19:58;;;;;;;;;;;;;;;-4.27;85.51;99731.52;106577;1259;72707;-82
2023/11/28 04:22:24;;;;;;;;;;;;;;;-4.10;85.76;99731.63;106445;1263;125914;-82
2023/11/28 04:24:51;;;;;;;;;;;;;;;-3.91;85.79;99735.95;106604;1259;61252;-82
2023/11/28 04:27:18;;;;;;;;;;;;;;;-3.77;85.79;99724.90;106508;1260;61162;-81
2023/11/28 04:29:45;;;;;;;;;;;;;;;-3.66;85.51;99728.36;106518;1260;124899;-82
2023/11/28 04:32:12;;;;;;;;;;;;;;;-3.67;84.98;99722.63;106516;1260;71832;-81
2023/11/28 04:34:38;;;;;;;;;;;;;;;-3.71;84.91;99722.22;106473;1259;124460;-81
2023/11/28 04:37:05;;;;;;;;;;;;;;;-3.71;84.97;99719.48;106628;1259;59310;-80
2023/11/28 04:39:32;;;;;;;;;;;;;;;-3.66;84.90;99716.68;106613;1259;74506;-79
2023/11/28 04:41:58;;;;;;;;;;;;;;;-3.57;85.03;99705.41;106530;1259;66941;-80
2023/11/28 04:44:25;;;;;;;;;;;;;;;-3.49;85.05;99702.16;106648;1263;72387;-80
2023/11/28 04:46:52;;;;;;;;;;;;;;;-3.44;85.00;99705.75;106466;1262;124911;-80
2023/11/28 04:49:20;;;;;;;;;;;;;;;-3.36;85.23;99700.78;106677;1259;60149;-79
2023/11/28 04:51:46;;;;;;;;;;;;;;;-3.25;85.39;99693.21;106425;1259;124830;-81
2023/11/28 04:54:13;;;;;;;;;;;;;;;-3.16;85.47;99687.41;106593;1261;66262;-82
2023/11/28 04:56:41;;;;;;;;;;;;;;;-3.07;85.35;99690.36;106463;1261;72451;-79
2023/11/28 04:59:07;;;;;;;;;;;;;;;-2.98;85.42;99692.65;106179;1259;125691;-80
2023/11/28 05:01:41;;;;;;;;;;;;;;;-2.90;85.52;99691.07;106659;1264;61309;-80
2023/11/28 05:04:07;;;;;;;;;;;;;;;-2.83;85.39;99685.86;108731;1259;124952;-81
2023/11/28 05:06:34;;;;;;;;;;;;;;;-2.74;85.55;99692.59;108875;1258;66241;-81
2023/11/28 05:09:01;;;;;;;;;;;;;;;-2.66;85.48;99689.98;107468;1259;71596;-80
2023/11/28 05:11:27;;;;;;;;;;;;;;;-2.58;85.28;99686.33;106407;1259;124907;-82
2023/11/28 05:13:54;;;;;;;;;;;;;;;-2.52;85.28;99683.23;106504;1259;61343;-80
2023/11/28 05:16:21;;;;;;;;;;;;;;;-2.49;85.01;99683.55;106340;1260;125737;-80
2023/11/28 05:18:48;;;;;;;;;;;;;;;-2.47;84.90;99679.02;106403;1259;64544;-82
2023/11/28 05:21:14;;;;;;;;;;;;;;;-2.50;84.60;99680.41;106470;1259;72727;-81
2023/11/28 05:23:41;;;;;;;;;;;;;;;-2.53;84.52;99676.12;106236;1259;126165;-81
2023/11/28 05:26:08;;;;;;;;;;;;;;;-2.59;84.35;99680.05;106635;1259;61173;-82
2023/11/28 05:28:35;;;;;;;;;;;;;;;-2.64;84.23;99682.85;106484;1263;123816;-83
2023/11/28 05:31:02;;;;;;;;;;;;;;;-2.68;84.10;99681.40;106475;1264;65112;-84
2023/11/28 05:33:29;;;;;;;;;;;;;;;-2.75;83.93;99677.73;106524;1265;76743;-85
2023/11/28 05:35:56;;;;;;;;;;;;;;;-2.84;83.88;99679.09;106515;1259;123340;-81
2023/11/28 05:38:23;;;;;;;;;;;;;;;-2.87;83.98;99678.05;106583;1261;59922;-86
2023/11/28 05:40:49;;;;;;;;;;;;;;;-2.86;84.22;99679.98;106503;1262;124454;-87
2023/11/28 05:43:16;;;;;;;;;;;;;;;-2.83;84.33;99680.87;106404;1259;66337;-88
2023/11/28 05:45:43;;;;;;;;;;;;;;;-2.78;84.36;99681.99;106267;1264;125420;-87
2023/11/28 05:48:09;;;;;;;;;;;;;;;-2.78;84.17;99681.52;106642;1260;59931;-91
2023/11/28 05:50:37;;;;;;;;;;;;;;;-2.75;84.27;99680.86;106906;1259;61270;-87
2023/11/28 05:53:04;;;;;;;;;;;;;;;-2.78;84.04;99681.85;106600;1258;124450;-87
2023/11/28 05:55:30;;;;;;;;;;;;;;;-2.87;83.86;99680.63;106711;1259;66263;-85
2023/11/28 05:57:57;;;;;;;;;;;;;;;-2.90;83.91;99678.00;106624;1260;124611;-88
2023/11/28 06:00:24;;;;;;;;;;;;;;;-2.89;83.89;99673.26;106865;1260;61336;-89
2023/11/28 06:02:52;;;;;;;;;;;;;;;-2.83;84.17;99669.32;106722;1259;61305;-89
2023/11/28 06:05:19;;;;;;;;;;;;;;;-2.82;83.96;99669.41;106598;1261;123543;-87
2023/11/28 06:07:45;;;;;;;;;;;;;;;-2.82;83.95;99672.67;106779;1258;66166;-88
2023/11/28 06:10:13;;;;;;;;;;;;;;;-2.80;83.90;99673.33;106641;1259;124883;-85
2023/11/28 06:12:40;;;;;;;;;;;;;;;-2.78;83.98;99671.39;106743;1263;61234;-85
2023/11/28 06:15:07;;;;;;;;;;;;;;;-2.75;83.90;99670.85;106599;1260;61390;-86
2023/11/28 06:17:34;;;;;;;;;;;;;;;-2.72;83.82;99665.69;106608;1261;124844;-86
2023/11/28 06:20:01;;;;;;;;;;;;;;;-2.69;83.70;99668.63;106804;1264;64790;-85
2023/11/28 06:22:28;;;;;;;;;;;;;;;-2.65;84.02;99665.98;106355;1259;124946;-81
2023/11/28 06:24:54;;;;;;;;;;;;;;;-2.58;83.94;99664.36;106399;1261;59476;-81
2023/11/28 06:27:21;;;;;;;;;;;;;;;-2.51;84.18;99665.78;106555;1259;61280;-81
2023/11/28 06:29:49;;;;;;;;;;;;;;;-2.44;84.32;99666.84;106241;1259;124151;-82
2023/11/28 06:32:15;;;;;;;;;;;;;;;-2.39;84.53;99663.88;106443;1259;65133;-80
2023/11/28 06:34:46;;;;;;;;;;;;;;;-2.33;84.69;99662.67;106447;1259;125554;-80
2023/11/28 06:37:13;;;;;;;;;;;;;;;-2.29;84.66;99662.40;106558;1259;61353;-80
2023/11/28 06:39:41;;;;;;;;;;;;;;;-2.29;84.60;99660.55;106486;1259;125753;-81
2023/11/28 06:42:08;;;;;;;;;;;;;;;-2.33;84.59;99657.38;106444;1259;74692;-81
2023/11/28 06:44:34;;;;;;;;;;;;;;;-2.38;84.62;99660.89;106579;1263;67260;-81
2023/11/28 06:47:02;;;;;;;;;;;;;;;-2.41;84.64;99658.15;106458;1259;125002;-81
2023/11/28 06:49:31;;;;;;;;;;;;;;;-2.43;84.67;99662.27;106467;1259;59747;-81
2023/11/28 06:51:59;;;;;;;;;;;;;;;-2.44;84.71;99664.48;106493;1259;124719;-81
2023/11/28 06:54:26;;;;;;;;;;;;;;;-2.42;84.69;99664.93;106497;1259;75009;-81
2023/11/28 06:56:52;;;;;;;;;;;;;;;-2.41;84.71;99671.02;106293;1259;66280;-80
2023/11/28 06:59:19;;;;;;;;;;;;;;;-2.41;84.67;99669.98;106114;1259;125036;-81
2023/11/28 07:01:46;;;;;;;;;;;;;;;-2.40;84.60;99672.43;106311;1259;61395;-81
2023/11/28 07:04:13;;;;;;;;;;;;;;;-2.41;84.68;99671.34;106233;1259;125417;-81
2023/11/28 07:06:40;;;;;;;;;;;;;;;-2.42;84.65;99668.86;106462;1261;74240;-80
2023/11/28 07:09:06;;;;;;;;;;;;;;;-2.46;84.63;99671.39;106403;1259;65008;-81
2023/11/28 07:11:34;;;;;;;;;;;;;;;-2.49;84.62;99674.64;106396;1259;124483;-82
2023/11/28 07:14:00;;;;;;;;;;;;;;;-2.51;84.60;99680.00;106334;1261;61433;-81
2023/11/28 07:16:28;;;;;;;;;;;;;;;-2.53;84.54;99683.31;106239;1259;125142;-81
2023/11/28 07:18:55;;;;;;;;;;;;;;;-2.55;84.45;99684.23;106165;1261;73591;-80
2023/11/28 07:21:22;;;;;;;;;;;;;;;-2.58;84.38;99684.79;106279;1260;65120;-80
2023/11/28 07:23:48;;;;;;;;;;;;;;;-2.59;84.46;99687.80;106255;1259;124297;-81
2023/11/28 07:26:15;;;;;;;;;;;;;;;-2.60;84.50;99685.51;106347;1263;61097;-81
2023/11/28 07:28:42;;;;;;;;;;;;;;;-2.61;84.28;99686.69;106199;1259;124528;-80
2023/11/28 07:31:09;;;;;;;;;;;;;;;-2.61;84.21;99687.33;106255;1264;61158;-82
2023/11/28 07:33:35;;;;;;;;;;;;;;;-2.62;84.13;99687.48;106111;1263;124867;-80
2023/11/28 07:36:03;;;;;;;;;;;;;;;-2.62;84.14;99689.17;106135;1260;72879;-80
2023/11/28 07:38:30;;;;;;;;;;;;;;;-2.62;84.02;99689.86;106271;1265;61185;-80
2023/11/28 07:40:56;;;;;;;;;;;;;;;-2.62;84.10;99693.13;106311;1261;124611;-80
2023/11/28 07:43:24;;;;;;;;;;;;;;;-2.59;84.07;99697.61;106408;1259;72748;-81
2023/11/28 07:45:51;;;;;;;;;;;;;;;-2.53;84.06;99697.29;106234;1259;124541;-81
2023/11/28 07:48:17;;;;;;;;;;;;;;;-2.47;84.08;99699.81;106218;1259;71862;-81
2023/11/28 07:50:44;;;;;;;;;;;;;;;-2.42;84.08;99698.73;106380;1263;61244;-81
2023/11/28 07:53:11;;;;;;;;;;;;;;;-2.39;84.00;99702.05;106337;1259;123750;-81
2023/11/28 07:55:38;;;;;;;;;;;;;;;-2.36;83.83;99700.65;106313;1259;75835;-80
2023/11/28 07:58:05;;;;;;;;;;;;;;;-2.35;83.77;99700.59;106215;1264;124314;-80
2023/11/28 08:00:32;;;;;;;;;;;;;;;-2.34;83.70;99697.37;106431;1259;71072;-80
2023/11/28 08:03:00;;;;;;;;;;;;;;;-2.34;83.60;99691.17;106400;1264;61373;-80
2023/11/28 08:05:27;;;;;;;;;;;;;;;-2.32;83.41;99696.40;106329;1264;123910;-80
2023/11/28 08:07:54;;;;;;;;;;;;;;;-2.31;83.52;99696.83;106479;1259;74793;-79
2023/11/28 08:10:22;;;;;;;;;;;;;;;-2.29;83.41;99700.20;106294;1259;124299;-80
2023/11/28 08:12:49;;;;;;;;;;;;;;;-2.25;83.40;99698.17;106466;1259;72967;-81
2023/11/28 08:15:16;;;;;;;;;;;;;;;-2.22;83.33;99699.77;106519;1259;61317;-80
2023/11/28 08:17:42;;;;;;;;;;;;;;;-2.18;83.30;99698.98;106328;1259;124594;-79
2023/11/28 08:20:09;;;;;;;;;;;;;;;-2.12;83.15;99700.19;106346;1259;74702;-80
2023/11/28 08:22:36;;;;;;;;;;;;;;;-2.04;83.27;99700.65;106339;1261;125189;-81
2023/11/28 08:25:03;;;;;;;;;;;;;;;-1.95;83.18;99702.17;106366;1259;72698;-81
2023/11/28 08:27:30;;;;;;;;;;;;;;;-1.87;83.09;99702.62;106336;1264;61335;-81
2023/11/28 08:29:56;;;;;;;;;;;;;;;-1.82;83.01;99695.57;106672;1261;124631;-81
2023/11/28 08:32:23;;;;;;;;;;;;;;;-1.71;83.03;99700.11;106393;1259;74289;-81
2023/11/28 08:34:50;;;;;;;;;;;;;;;-1.64;82.89;99699.64;106260;1259;123486;-81
2023/11/28 08:37:16;;;;;;;;;;;;;;;-1.58;82.81;99698.27;106458;1263;71687;-80
2023/11/28 08:39:43;;;;;;;;;;;;;;;-1.50;82.47;99698.35;106164;1264;125047;-81
2023/11/28 08:42:10;;;;;;;;;;;;;;;-1.43;82.65;99700.17;106377;1259;60435;-81
2023/11/28 08:44:37;;;;;;;;;;;;;;;-1.34;82.59;99697.52;106449;1259;74052;-80
2023/11/28 08:47:04;;;;;;;;;;;;;;;-1.27;82.18;99700.02;106383;1259;124522;-81
2023/11/28 08:49:31;;;;;;;;;;;;;;;-1.18;81.99;99706.17;106397;1260;73170;-81
2023/11/28 08:51:57;;;;;;;;;;;;;;;-1.08;81.83;99708.07;106325;1259;124557;-81
2023/11/28 08:54:24;;;;;;;;;;;;;;;-0.98;81.76;99712.05;106545;1258;61247;-81
2023/11/28 08:56:51;;;;;;;;;;;;;;;-0.89;81.38;99708.76;106450;1259;73907;-81
2023/11/28 08:59:17;;;;;;;;;;;;;;;-0.82;81.33;99706.91;106395;1259;124178;-81
2023/11/28 09:01:44;;;;;;;;;;;;;;;-0.74;81.25;99710.39;106340;1259;72726;-81
2023/11/28 09:04:11;;;;;;;;;;;;;;;-0.69;81.10;99707.94;106314;1259;124848;-81
2023/11/28 09:06:37;;;;;;;;;;;;;;;-0.64;80.97;99710.09;106487;1263;61226;-81
2023/11/28 09:09:04;;;;;;;;;;;;;;;-0.58;80.83;99707.45;106438;1259;75066;-81
2023/11/28 09:11:31;;;;;;;;;;;;;;;-0.52;80.74;99712.94;106311;1261;125028;-82
2023/11/28 09:13:57;;;;;;;;;;;;;;;-0.47;80.57;99713.23;106515;1259;72774;-83
2023/11/28 09:16:24;;;;;;;;;;;;;;;-0.40;80.50;99716.64;106340;1259;124668;-80
2023/11/28 09:18:51;;;;;;;;;;;;;;;-0.33;80.29;99715.12;106352;1259;61331;-83
2023/11/28 09:21:18;;;;;;;;;;;;;;;-0.27;79.99;99720.95;106197;1259;187507;-80
2023/11/28 09:23:44;;;;;;;;;;;;;;;-0.22;80.01;99718.48;106221;1262;124300;-80
2023/11/28 09:26:11;;;;;;;;;;;;;;;-0.15;79.90;99716.89;106371;1259;72686;-82
2023/11/28 09:28:38;;;;;;;;;;;;;;;-0.10;79.70;99712.69;106291;1259;123824;-80
2023/11/28 09:31:05;;;;;;;;;;;;;;;-0.05;79.12;99710.33;106378;1261;60195;-81
2023/11/28 09:33:31;;;;;;;;;;;;;;;-0.02;78.98;99708.43;106394;1260;74694;-80
2023/11/28 09:35:58;;;;;;;;;;;;;;;-0.00;78.61;99703.01;106247;1263;124516;-81
2023/11/28 09:38:25;;;;;;;;;;;;;;;0.03;78.49;99698.83;106314;1259;72779;-81
2023/11/28 09:40:51;;;;;;;;;;;;;;;0.06;78.26;99694.88;106298;1264;124465;-81
2023/11/28 09:43:19;;;;;;;;;;;;;;;0.09;78.01;99692.57;106421;1260;61277;-81
2023/11/28 09:45:46;;;;;;;;;;;;;;;0.12;77.80;99693.61;106295;1259;124598;-80
2023/11/28 09:48:13;;;;;;;;;;;;;;;0.14;77.69;99688.20;106481;1259;65086;-82
2023/11/28 09:50:40;;;;;;;;;;;;;;;0.15;77.18;99689.27;106419;1259;72412;-80
2023/11/28 09:53:06;;;;;;;;;;;;;;;0.17;77.05;99687.30;106244;1263;123636;-80
2023/11/28 09:55:34;;;;;;;;;;;;;;;0.18;76.95;99687.21;106327;1263;61184;-81
2023/11/28 09:58:03;;;;;;;;;;;;;;;0.19;76.51;99687.76;106269;1262;123991;-81
2023/11/28 10:00:30;;;;;;;;;;;;;;;0.21;76.38;99687.11;106391;1259;66278;-81
2023/11/28 10:02:57;;;;;;;;;;;;;;;0.22;76.21;99682.71;106381;1259;72379;-81
2023/11/28 10:05:24;;;;;;;;;;;;;;;0.25;76.23;99683.34;106266;1259;123900;-81
2023/11/28 10:07:52;;;;;;;;;;;;;;;0.26;75.99;99679.60;106363;1259;60154;-81
2023/11/28 10:10:19;;;;;;;;;;;;;;;0.27;75.80;99674.13;106251;1259;124330;-81
2023/11/28 10:12:45;;;;;;;;;;;;;;;0.27;75.68;99674.51;106309;1259;65048;-80
2023/11/28 10:15:12;;;;;;;;;;;;;;;0.28;75.44;99671.96;106329;1259;72720;-81
2023/11/28 10:17:39;;;;;;;;;;;;;;;0.29;75.45;99669.07;106290;1259;124749;-81
2023/11/28 10:20:08;;;;;;;;;;;;;;;0.31;75.53;99666.57;106340;1259;61218;-80
2023/11/28 10:22:35;;;;;;;;;;;;;;;0.34;75.57;99665.36;106279;1260;123831;-80
2023/11/28 10:25:10;;;;;;;;;;;;;;;0.36;75.53;99664.73;106337;1259;64173;-80
2023/11/28 10:27:39;;;;;;;;;;;;;;;0.35;75.41;99662.46;106229;1259;124567;-80
2023/11/28 10:30:10;;;;;;;;;;;;;;;0.35;75.37;99659.39;106691;1259;61375;-80
2023/11/28 10:32:40;;;;;;;;;;;;;;;0.34;75.15;99655.17;106371;1259;61267;-80
2023/11/28 10:35:07;;;;;;;;;;;;;;;0.32;75.12;99654.58;106360;1259;124232;-80
2023/11/28 10:37:34;;;;;;;;;;;;;;;0.32;75.05;99653.16;106347;1264;67525;-81
2023/11/28 10:40:05;;;;;;;;;;;;;;;0.31;74.77;99653.65;106331;1259;124412;-80
2023/11/28 10:42:31;;;;;;;;;;;;;;;0.31;74.96;99651.08;106469;1263;61307;-80
2023/11/28 10:44:58;;;;;;;;;;;;;;;0.33;74.59;99650.96;106407;1265;61537;-80
2023/11/28 10:47:33;;;;;;;;;;;;;;;0.31;74.31;99650.71;106451;1263;123578;-80
2023/11/28 10:50:00;;;;;;;;;;;;;;;0.31;74.49;99650.89;106543;1259;66014;-80
2023/11/28 10:52:27;;;;;;;;;;;;;;;0.32;74.27;99652.14;106441;1263;123719;-80
2023/11/28 10:54:55;;;;;;;;;;;;;;;0.32;73.97;99650.27;106362;1259;61410;-81
2023/11/28 10:57:28;;;;;;;;;;;;;;;0.33;73.75;99645.45;106494;1259;61340;-81
2023/11/28 10:59:56;;;;;;;;;;;;;;;0.33;73.65;99645.98;106338;1263;123891;-81
2023/11/28 11:02:23;;;;;;;;;;;;;;;0.33;73.54;99648.39;107721;1261;66342;-82
2023/11/28 11:04:50;;;;;;;;;;;;;;;0.35;73.75;99653.34;106298;1261;124593;-81
2023/11/28 11:07:17;;;;;;;;;;;;;;;0.37;73.28;99660.66;106448;1259;61293;-81
2023/11/28 11:09:44;;;;;;;;;;;;;;;0.37;72.96;99659.61;106277;1259;124044;-80
2023/11/28 11:12:11;;;;;;;;;;;;;;;0.38;73.19;99661.94;106315;1264;75250;-82
2023/11/28 11:14:43;;;;;;;;;;;;;;;0.38;72.99;99660.73;106452;1263;64629;-80
2023/11/28 11:17:23;;;;;;;;;;;;;;;0.37;72.88;99662.04;106272;1259;123899;-80
2023/11/28 11:19:51;;;;;;;;;;;;;;;0.35;72.60;99660.38;106412;1259;61185;-80
2023/11/28 11:22:18;;;;;;;;;;;;;;;0.33;72.50;99663.91;106223;1259;123996;-81
2023/11/28 11:24:44;;;;;;;;;;;;;;;0.32;72.24;99667.15;106430;1259;75185;-81
2023/11/28 11:27:11;;;;;;;;;;;;;;;0.31;72.07;99663.98;106202;1259;66023;-81
2023/11/28 11:29:39;;;;;;;;;;;;;;;0.31;72.10;99662.45;106320;1263;123620;-81
2023/11/28 11:32:10;;;;;;;;;;;;;;;0.31;72.17;99666.23;106198;1259;59660;-81
2023/11/28 11:34:40;;;;;;;;;;;;;;;0.31;72.28;99663.46;106299;1259;123572;-80
2023/11/28 11:37:30;;;;;;;;;;;;;;;0.30;72.34;99662.89;106348;1259;74410;-82
2023/11/28 11:40:00;;;;;;;;;;;;;;;0.27;71.75;99665.55;106307;1259;123925;-80
2023/11/28 11:42:29;;;;;;;;;;;;;;;0.22;71.69;99661.67;106314;1259;71103;-80
2023/11/28 11:44:56;;;;;;;;;;;;;;;0.20;71.83;99658.27;106351;1259;61346;-80
2023/11/28 11:47:23;;;;;;;;;;;;;;;0.18;71.77;99659.23;106347;1260;124174;-81
2023/11/28 11:49:51;;;;;;;;;;;;;;;0.17;71.57;99658.52;106563;1259;74718;-82
2023/11/28 11:52:18;;;;;;;;;;;;;;;0.15;71.61;99659.80;106262;1259;124543;-84
2023/11/28 11:54:45;;;;;;;;;;;;;;;0.13;71.59;99657.92;106306;1264;71791;-83
2023/11/28 11:57:11;;;;;;;;;;;;;;;0.08;71.44;99661.86;106237;1261;61280;-83
2023/11/28 11:59:40;;;;;;;;;;;;;;;0.05;71.38;99657.72;106372;1261;124102;-83
2023/11/28 12:02:06;;;;;;;;;;;;;;;0.03;71.43;99659.17;106269;1259;73379;-83
2023/11/28 12:04:33;;;;;;;;;;;;;;;0.00;71.38;99658.88;106452;1263;123838;-81
2023/11/28 12:07:01;;;;;;;;;;;;;;;-0.02;71.36;99659.48;106349;1259;70825;-81
2023/11/28 12:09:30;;;;;;;;;;;;;;;-0.03;71.44;99662.69;106537;1263;61287;-81
2023/11/28 12:11:57;;;;;;;;;;;;;;;-0.05;71.51;99663.13;108718;1258;124469;-82
2023/11/28 12:14:23;;;;;;;;;;;;;;;-0.07;71.48;99662.15;107744;1263;73412;-81
2023/11/28 12:16:53;;;;;;;;;;;;;;;-0.08;71.31;99661.77;106353;1259;124003;-81
2023/11/28 12:19:20;;;;;;;;;;;;;;;-0.09;71.44;99663.44;106492;1259;72858;-81
2023/11/28 12:21:47;;;;;;;;;;;;;;;-0.10;71.39;99663.03;106399;1259;124074;-80
2023/11/28 12:24:14;;;;;;;;;;;;;;;-0.10;71.47;99665.77;106489;1267;61239;-81
2023/11/28 12:26:41;;;;;;;;;;;;;;;-0.10;71.35;99668.19;106394;1259;74404;-80
2023/11/28 12:29:08;;;;;;;;;;;;;;;-0.10;71.43;99669.41;106190;1259;124309;-81
2023/11/28 12:31:34;;;;;;;;;;;;;;;-0.08;71.20;99668.80;106348;1264;72702;-81
2023/11/28 12:34:01;;;;;;;;;;;;;;;-0.06;71.35;99672.52;106397;1259;124059;-81